createdAt,value
2023-05-10T00:01:36.659Z,99175.44
2023-05-10T00:04:49.035Z,99175.44
2023-05-10T00:08:01.079Z,99173.88
2023-05-10T00:11:13.305Z,99167.86
2023-05-10T00:14:26.081Z,99179.66
2023-05-10T00:17:38.326Z,99173.44
2023-05-10T00:20:50.865Z,99170.38
2023-05-10T00:24:03.179Z,99164.17
2023-05-10T00:27:15.754Z,99168.28
2023-05-10T00:30:29.240Z,99163.86
2023-05-10T00:33:41.556Z,99170.16
2023-05-10T00:36:54.939Z,99157.52
2023-05-10T00:40:07.059Z,99165.80
2023-05-10T00:43:19.545Z,99160.64
2023-05-10T00:46:34.020Z,99152.40
2023-05-10T00:49:47.348Z,99150.34
2023-05-10T00:52:59.506Z,99157.40
2023-05-10T00:56:12.367Z,99152.98
2023-05-10T00:59:25.403Z,99152.24
2023-05-10T01:02:38.024Z,99152.13
2023-05-10T01:05:50.324Z,99156.00
2023-05-10T01:09:04.663Z,99149.25
2023-05-10T01:12:17.115Z,99147.47
2023-05-10T01:15:29.662Z,99144.20
2023-05-10T01:18:44.995Z,99145.35
2023-05-10T01:22:08.657Z,99150.63
2023-05-10T01:26:07.560Z,99141.23
2023-05-10T01:29:49.019Z,99145.02
2023-05-10T01:33:06.592Z,99140.69
2023-05-10T01:36:27.243Z,99144.77
2023-05-10T01:39:45.052Z,99136.97
2023-05-10T01:43:03.838Z,99146.66
2023-05-10T01:46:22.063Z,99138.53
2023-05-10T01:49:37.903Z,99140.53
2023-05-10T01:52:55.773Z,99138.59
2023-05-10T01:56:09.924Z,99126.91
2023-05-10T01:59:26.536Z,99127.88
2023-05-10T02:02:43.532Z,99129.61
2023-05-10T02:05:57.990Z,99126.11
2023-05-10T02:09:12.058Z,99125.70
2023-05-10T02:12:25.291Z,99121.93
2023-05-10T02:15:39.742Z,99115.06
2023-05-10T02:18:53.293Z,99114.54
2023-05-10T02:22:06.604Z,99111.80
2023-05-10T02:25:21.323Z,99110.13
2023-05-10T02:28:35.228Z,99110.42
2023-05-10T02:31:48.797Z,99110.53
2023-05-10T02:35:01.813Z,99103.66
2023-05-10T02:38:14.749Z,99107.34
2023-05-10T02:41:28.215Z,99106.80
2023-05-10T02:44:42.789Z,99110.76
2023-05-10T02:47:55.672Z,99109.08
2023-05-10T02:51:12.714Z,99110.12
2023-05-10T02:54:29.846Z,99118.41
2023-05-10T02:57:46.718Z,99117.94
2023-05-10T03:00:59.019Z,99121.34
2023-05-10T03:04:11.801Z,99112.81
2023-05-10T03:07:24.609Z,99108.55
2023-05-10T03:10:39.385Z,99111.19
2023-05-10T03:13:59.516Z,99113.92
2023-05-10T03:17:17.255Z,99110.37
2023-05-10T03:20:37.139Z,99113.00
2023-05-10T03:23:56.410Z,99109.52
2023-05-10T03:27:09.549Z,99109.69
2023-05-10T03:30:23.455Z,99105.17
2023-05-10T03:33:36.059Z,99111.01
2023-05-10T03:36:48.513Z,99104.15
2023-05-10T03:40:00.972Z,99108.27
2023-05-10T03:43:14.662Z,99101.98
2023-05-10T03:46:27.723Z,99104.50
2023-05-10T03:49:40.100Z,99105.14
2023-05-10T03:52:54.114Z,99108.13
2023-05-10T03:56:06.760Z,99106.88
2023-05-10T03:59:19.380Z,99110.81
2023-05-10T04:02:32.044Z,99107.16
2023-05-10T04:05:46.306Z,99113.05
2023-05-10T04:09:00.828Z,99106.75
2023-05-10T04:12:13.965Z,99111.40
2023-05-10T04:15:26.618Z,99110.03
2023-05-10T04:18:38.729Z,99111.34
2023-05-10T04:21:51.154Z,99111.67
2023-05-10T04:25:03.388Z,99113.90
2023-05-10T04:28:15.405Z,99120.98
2023-05-10T04:31:28.160Z,99124.88
2023-05-10T04:34:40.724Z,99119.82
2023-05-10T04:37:52.690Z,99116.35
2023-05-10T04:41:14.583Z,99117.56
2023-05-10T04:44:26.771Z,99111.33
2023-05-10T04:47:39.018Z,99116.37
2023-05-10T04:50:51.231Z,99115.94
2023-05-10T04:54:06.656Z,99112.33
2023-05-10T04:57:17.566Z,99105.56
2023-05-10T05:00:30.174Z,99110.91
2023-05-10T05:03:43.717Z,99100.44
2023-05-10T05:06:56.600Z,99105.77
2023-05-10T05:10:09.035Z,99102.03
2023-05-10T05:13:24.633Z,99100.89
2023-05-10T05:16:39.129Z,99102.02
2023-05-10T05:19:51.837Z,99100.01
2023-05-10T05:23:04.002Z,99097.56
2023-05-10T05:26:16.165Z,99091.75
2023-05-10T05:29:28.299Z,99084.05
2023-05-10T05:32:40.502Z,99078.85
2023-05-10T05:35:53.027Z,99082.78
2023-05-10T05:39:05.361Z,99074.59
2023-05-10T05:42:19.960Z,99084.75
2023-05-10T05:45:32.587Z,99074.80
2023-05-10T05:48:45.064Z,99080.14
2023-05-10T05:51:57.326Z,99075.75
2023-05-10T05:55:10.784Z,99075.35
2023-05-10T05:58:22.956Z,99070.75
2023-05-10T06:01:35.233Z,99080.71
2023-05-10T06:04:47.699Z,99076.28
2023-05-10T06:08:00.131Z,99074.37
2023-05-10T06:11:12.540Z,99072.95
2023-05-10T06:14:25.559Z,99074.22
2023-05-10T06:17:37.862Z,99076.03
2023-05-10T06:20:51.592Z,99073.49
2023-05-10T06:24:04.325Z,99047.92
2023-05-10T06:27:17.520Z,99069.13
2023-05-10T06:30:30.608Z,99065.80
2023-05-10T06:33:42.980Z,99059.15
2023-05-10T06:36:55.493Z,99057.90
2023-05-10T06:40:08.006Z,99055.63
2023-05-10T06:43:20.145Z,99051.19
2023-05-10T06:46:32.332Z,99048.48
2023-05-10T06:49:44.768Z,99045.69
2023-05-10T06:52:57.014Z,99036.98
2023-05-10T06:56:10.077Z,99026.91
2023-05-10T06:59:22.945Z,99030.34
2023-05-10T07:02:35.357Z,99020.29
2023-05-10T07:05:47.924Z,99020.00
2023-05-10T07:09:00.389Z,99007.95
2023-05-10T07:12:15.435Z,99006.55
2023-05-10T07:15:29.359Z,99012.20
2023-05-10T07:18:41.810Z,99014.69
2023-05-10T07:21:54.175Z,99007.36
2023-05-10T07:25:06.800Z,99008.67
2023-05-10T07:28:19.483Z,99008.09
2023-05-10T07:31:32.383Z,99008.50
2023-05-10T07:34:45.586Z,99001.19
2023-05-10T07:37:58.852Z,99000.90
2023-05-10T07:41:12.288Z,98990.19
2023-05-10T07:44:24.762Z,98981.20
2023-05-10T07:47:36.863Z,98980.78
2023-05-10T07:50:49.001Z,98982.75
2023-05-10T07:54:01.447Z,98975.16
2023-05-10T07:57:12.588Z,98972.30
2023-05-10T08:00:28.080Z,98972.09
2023-05-10T08:03:40.328Z,98961.81
2023-05-10T08:06:52.605Z,98957.41
2023-05-10T08:10:04.759Z,98952.16
2023-05-10T08:13:16.882Z,98949.58
2023-05-10T08:16:30.204Z,98946.38
2023-05-10T08:19:42.601Z,98949.46
2023-05-10T08:22:55.234Z,98942.41
2023-05-10T08:26:07.822Z,98937.63
2023-05-10T08:29:20.440Z,98931.59
2023-05-10T08:32:32.897Z,98925.33
2023-05-10T08:35:48.326Z,98924.30
2023-05-10T08:39:01.220Z,98928.47
2023-05-10T08:42:16.338Z,98921.70
2023-05-10T08:45:30.290Z,98920.69
2023-05-10T08:48:44.850Z,98917.20
2023-05-10T08:52:01.442Z,98925.13
2023-05-10T08:55:12.590Z,98917.57
2023-05-10T08:58:24.651Z,98916.05
2023-05-10T09:01:38.573Z,98927.98
2023-05-10T09:04:50.880Z,98921.85
2023-05-10T09:08:03.813Z,98926.47
2023-05-10T09:11:16.810Z,98924.86
2023-05-10T09:14:30.516Z,98916.89
2023-05-10T09:17:43.621Z,98927.66
2023-05-10T09:20:56.121Z,98925.55
2023-05-10T09:24:13.022Z,98911.16
2023-05-10T09:27:33.245Z,98921.94
2023-05-10T09:30:45.575Z,98916.01
2023-05-10T09:33:58.831Z,98916.51
2023-05-10T09:37:11.896Z,98916.21
2023-05-10T09:40:26.062Z,98918.38
2023-05-10T09:43:47.494Z,98927.61
2023-05-10T09:47:00.200Z,98924.22
2023-05-10T09:50:14.732Z,98922.37
2023-05-10T09:53:26.697Z,98920.66
2023-05-10T09:56:45.570Z,98918.62
2023-05-10T09:59:59.584Z,98917.41
2023-05-10T10:03:13.233Z,98918.28
2023-05-10T10:06:30.561Z,98920.14
2023-05-10T10:09:43.725Z,98899.23
2023-05-10T10:12:55.974Z,98910.03
2023-05-10T10:16:09.988Z,98899.48
2023-05-10T10:19:22.340Z,98922.11
2023-05-10T10:22:34.484Z,98903.61
2023-05-10T10:25:49.031Z,98898.84
2023-05-10T10:29:10.582Z,98893.20
2023-05-10T10:32:31.860Z,98895.97
2023-05-10T10:35:45.249Z,98895.70
2023-05-10T10:39:13.940Z,98894.93
2023-05-10T10:42:52.632Z,98898.68
2023-05-10T10:46:24.479Z,98898.34
2023-05-10T10:49:38.101Z,98891.31
2023-05-10T10:52:51.669Z,98893.31
2023-05-10T10:56:17.573Z,98883.27
2023-05-10T10:59:37.655Z,98892.10
2023-05-10T11:02:57.932Z,98887.77
2023-05-10T11:06:10.576Z,98877.77
2023-05-10T11:09:23.003Z,98865.68
2023-05-10T11:12:36.704Z,98872.95
2023-05-10T11:15:53.556Z,98872.03
2023-05-10T11:19:12.393Z,98863.58
2023-05-10T11:22:24.918Z,98865.18
2023-05-10T11:25:37.250Z,98872.55
2023-05-10T11:28:52.916Z,98868.83
2023-05-10T11:32:09.427Z,98864.01
2023-05-10T11:35:21.098Z,98856.97
2023-05-10T11:38:33.947Z,98860.95
2023-05-10T11:41:46.661Z,98866.11
2023-05-10T11:44:59.040Z,98871.25
2023-05-10T11:48:11.928Z,98873.81
2023-05-10T11:51:27.393Z,98867.04
2023-05-10T11:54:40.128Z,98864.73
2023-05-10T11:57:52.848Z,98861.57
2023-05-10T12:01:05.799Z,98859.20
2023-05-10T12:04:18.269Z,98856.48
2023-05-10T12:07:31.020Z,98856.44
2023-05-10T12:10:43.730Z,98856.67
2023-05-10T12:13:56.242Z,98858.16
2023-05-10T12:17:08.550Z,98851.63
2023-05-10T12:20:26.312Z,98835.83
2023-05-10T12:23:39.026Z,98846.25
2023-05-10T12:27:07.896Z,98848.50
2023-05-10T12:30:27.560Z,98833.45
2023-05-10T12:33:47.741Z,98835.03
2023-05-10T12:37:01.036Z,98831.78
2023-05-10T12:40:17.022Z,98835.80
2023-05-10T12:43:30.025Z,98834.71
2023-05-10T12:46:42.284Z,98821.26
2023-05-10T12:49:54.432Z,98820.65
2023-05-10T12:53:06.764Z,98815.69
2023-05-10T12:56:19.026Z,98814.67
2023-05-10T12:59:31.364Z,98805.37
2023-05-10T13:02:44.246Z,98816.03
2023-05-10T13:05:56.930Z,98803.98
2023-05-10T13:09:12.193Z,98801.27
2023-05-10T13:12:24.680Z,98802.67
2023-05-10T13:15:37.381Z,98797.86
2023-05-10T13:18:49.949Z,98795.05
2023-05-10T13:22:03.638Z,98793.05
2023-05-10T13:25:17.728Z,98790.91
2023-05-10T13:28:31.423Z,98795.72
2023-05-10T13:31:44.788Z,98793.34
2023-05-10T13:35:00.161Z,98780.95
2023-05-10T13:38:14.920Z,98773.78
2023-05-10T13:41:27.795Z,98783.30
2023-05-10T13:44:40.471Z,98774.81
2023-05-10T13:47:53.349Z,98766.09
2023-05-10T13:51:06.075Z,98759.45
2023-05-10T13:54:20.775Z,98762.67
2023-05-10T13:57:37.058Z,98753.56
2023-05-10T14:00:50.311Z,98752.52
2023-05-10T14:04:03.261Z,98755.58
2023-05-10T14:07:16.009Z,98755.36
2023-05-10T14:10:28.617Z,98762.06
2023-05-10T14:13:41.477Z,98752.81
2023-05-10T14:16:54.331Z,98755.98
2023-05-10T14:20:07.531Z,98760.86
2023-05-10T14:23:23.197Z,98749.49
2023-05-10T14:26:35.954Z,98752.20
2023-05-10T14:29:48.865Z,98748.04
2023-05-10T14:33:02.413Z,98753.59
2023-05-10T14:36:17.085Z,98736.05
2023-05-10T14:39:30.834Z,98748.85
2023-05-10T14:42:44.545Z,98744.41
2023-05-10T14:45:58.124Z,98746.78
2023-05-10T14:49:11.844Z,98748.04
2023-05-10T14:52:24.778Z,98756.61
2023-05-10T14:55:38.206Z,98748.96
2023-05-10T14:58:51.023Z,98750.61
2023-05-10T15:02:04.540Z,98754.45
2023-05-10T15:05:19.211Z,98756.88
2023-05-10T15:08:32.247Z,98750.80
2023-05-10T15:11:45.701Z,98754.13
2023-05-10T15:14:58.072Z,98747.09
2023-05-10T15:18:13.910Z,98749.17
2023-05-10T15:21:26.871Z,98741.28
2023-05-10T15:24:39.634Z,98751.86
2023-05-10T15:27:53.656Z,98746.68
2023-05-10T15:31:06.991Z,98741.70
2023-05-10T15:34:24.621Z,98746.47
2023-05-10T15:37:37.470Z,98741.68
2023-05-10T15:40:50.163Z,98740.84
2023-05-10T15:44:03.129Z,98739.75
2023-05-10T15:47:15.668Z,98745.75
2023-05-10T15:50:28.751Z,98742.41
2023-05-10T15:53:56.444Z,98747.79
2023-05-10T15:57:00.291Z,98745.20
2023-05-10T16:00:17.052Z,98745.38
2023-05-10T16:03:32.985Z,98751.23
2023-05-10T16:06:50.976Z,98753.45
2023-05-10T16:10:04.544Z,98743.34
2023-05-10T16:13:22.791Z,98750.79
2023-05-10T16:16:39.964Z,98751.13
2023-05-10T16:19:53.757Z,98754.81
2023-05-10T16:23:09.928Z,98741.16
2023-05-10T16:26:26.020Z,98758.06
2023-05-10T16:29:39.521Z,98755.52
2023-05-10T16:32:52.546Z,98765.79
2023-05-10T16:36:06.584Z,98760.78
2023-05-10T16:39:19.484Z,98772.01
2023-05-10T16:42:32.482Z,98769.45
2023-05-10T16:45:45.187Z,98770.88
2023-05-10T16:49:00.016Z,98776.76
2023-05-10T16:52:13.109Z,98776.81
2023-05-10T16:55:26.624Z,98781.68
2023-05-10T16:58:40.311Z,98776.03
2023-05-10T17:01:53.537Z,98785.05
2023-05-10T17:05:10.289Z,98781.64
2023-05-10T17:08:26.379Z,98782.48
2023-05-10T17:11:43.492Z,98789.66
2023-05-10T17:14:57.083Z,98792.45
2023-05-10T17:18:11.915Z,98790.72
2023-05-10T17:21:28.330Z,98795.80
2023-05-10T17:24:45.484Z,98806.10
2023-05-10T17:27:58.609Z,98795.06
2023-05-10T17:31:12.027Z,98803.91
2023-05-10T17:34:25.963Z,98808.44
2023-05-10T17:37:40.035Z,98805.30
2023-05-10T17:40:52.963Z,98803.72
2023-05-10T17:44:06.218Z,98825.45
2023-05-10T17:47:19.267Z,98819.72
2023-05-10T17:50:35.778Z,98817.31
2023-05-10T17:53:47.665Z,98829.59
2023-05-10T17:57:05.767Z,98830.05
2023-05-10T18:00:26.500Z,98836.33
2023-05-10T18:03:39.711Z,98852.69
2023-05-10T18:06:55.468Z,98851.26
2023-05-10T18:10:12.833Z,98858.91
2023-05-10T18:13:25.824Z,98854.06
2023-05-10T18:16:38.436Z,98856.64
2023-05-10T18:19:54.287Z,98865.48
2023-05-10T18:23:07.371Z,98879.78
2023-05-10T18:26:20.372Z,98879.67
2023-05-10T18:29:37.517Z,98886.91
2023-05-10T18:32:50.843Z,98892.00
2023-05-10T18:36:05.243Z,98901.41
2023-05-10T18:39:21.298Z,98892.59
2023-05-10T18:42:43.045Z,98901.48
2023-05-10T18:45:59.165Z,98903.84
2023-05-10T18:49:12.284Z,98908.54
2023-05-10T18:52:41.326Z,98912.55
2023-05-10T18:56:04.201Z,98917.23
2023-05-10T18:59:18.467Z,98928.43
2023-05-10T19:02:31.502Z,98928.25
2023-05-10T19:05:44.642Z,98932.28
2023-05-10T19:09:06.560Z,98937.25
2023-05-10T19:12:26.198Z,98935.05
2023-05-10T19:15:44.272Z,98938.21
2023-05-10T19:19:03.042Z,98940.46
2023-05-10T19:22:16.202Z,98938.09
2023-05-10T19:25:31.211Z,98941.58
2023-05-10T19:28:44.924Z,98942.02
2023-05-10T19:31:58.732Z,98943.28
2023-05-10T19:35:14.882Z,98944.25
2023-05-10T19:38:29.921Z,98947.22
2023-05-10T19:41:42.491Z,98948.30
2023-05-10T19:44:57.560Z,98950.75
2023-05-10T19:48:11.604Z,98954.83
2023-05-10T19:51:24.269Z,98951.48
2023-05-10T19:54:36.430Z,98957.00
2023-05-10T19:57:48.615Z,98961.95
2023-05-10T20:01:01.136Z,98952.87
2023-05-10T20:04:13.453Z,98962.98
2023-05-10T20:07:25.933Z,98960.88
2023-05-10T20:10:38.390Z,98960.64
2023-05-10T20:13:50.986Z,98971.06
2023-05-10T20:17:06.389Z,98965.20
2023-05-10T20:20:21.432Z,98968.63
2023-05-10T20:23:33.658Z,98973.17
2023-05-10T20:26:46.625Z,98978.31
2023-05-10T20:29:59.255Z,98969.64
2023-05-10T20:33:12.612Z,98970.33
2023-05-10T20:36:25.607Z,98966.88
2023-05-10T20:39:37.744Z,98967.91
2023-05-10T20:42:52.219Z,98967.11
2023-05-10T20:46:05.636Z,98966.98
2023-05-10T20:49:18.298Z,98970.23
2023-05-10T20:52:30.655Z,98966.46
2023-05-10T20:55:43.066Z,98964.69
2023-05-10T20:58:55.054Z,98966.78
2023-05-10T21:02:07.080Z,98960.69
2023-05-10T21:05:19.536Z,98976.77
2023-05-10T21:08:31.993Z,98967.55
2023-05-10T21:11:44.518Z,98962.53
2023-05-10T21:14:56.890Z,98967.73
2023-05-10T21:18:09.902Z,98973.05
2023-05-10T21:21:22.325Z,98972.05
2023-05-10T21:24:35.381Z,98969.98
2023-05-10T21:27:47.392Z,98977.67
2023-05-10T21:30:59.670Z,98975.88
2023-05-10T21:34:14.147Z,98980.91
2023-05-10T21:37:26.346Z,98986.79
2023-05-10T21:40:40.409Z,98976.16
2023-05-10T21:43:52.607Z,98985.39
2023-05-10T21:47:05.018Z,98988.45
2023-05-10T21:50:18.829Z,98980.08
2023-05-10T21:53:31.694Z,98984.83
2023-05-10T21:56:44.722Z,98985.53
2023-05-10T21:59:57.128Z,98986.08
2023-05-10T22:03:09.476Z,98982.02
2023-05-10T22:06:22.039Z,98988.13
2023-05-10T22:09:34.548Z,98996.08
2023-05-10T22:12:46.834Z,98995.52
2023-05-10T22:15:59.098Z,98997.61
2023-05-10T22:19:11.526Z,99004.11
2023-05-10T22:22:23.596Z,99007.16
2023-05-10T22:25:36.061Z,99005.81
2023-05-10T22:28:48.506Z,99009.91
2023-05-10T22:32:03.179Z,99004.75
2023-05-10T22:35:16.703Z,99012.64
2023-05-10T22:38:29.043Z,98990.25
2023-05-10T22:41:42.038Z,99003.30
2023-05-10T22:44:54.193Z,99008.29
2023-05-10T22:48:09.662Z,99005.20
2023-05-10T22:51:21.730Z,99017.58
2023-05-10T22:54:36.189Z,99014.41
2023-05-10T22:57:48.630Z,99017.19
2023-05-10T23:01:01.318Z,99015.72
2023-05-10T23:04:13.517Z,99017.91
2023-05-10T23:07:25.759Z,99018.70
2023-05-10T23:10:38.705Z,99017.86
2023-05-10T23:13:51.129Z,99016.10
2023-05-10T23:17:03.249Z,99026.13
2023-05-10T23:20:19.105Z,99026.33
2023-05-10T23:23:33.075Z,99034.41
2023-05-10T23:26:46.702Z,99030.78
2023-05-10T23:29:59.487Z,99029.83
2023-05-10T23:33:14.236Z,99031.09
2023-05-10T23:36:27.124Z,99024.50
2023-05-10T23:39:39.266Z,99032.95
2023-05-10T23:42:51.897Z,99039.91
2023-05-10T23:46:05.522Z,99037.53
2023-05-10T23:49:17.841Z,99037.55
2023-05-10T23:52:30.166Z,99041.39
2023-05-10T23:55:42.671Z,99036.59
2023-05-10T23:58:55.008Z,99039.34
